Time;durP1;ratioP1;P1;durP2;ratioP2;P2;SDS_P1;SDS_P2;PMS_P1;PMS_P2;Temp;Humidity;BMP_temperature;BMP_pressure;BME280_temperature;BME280_humidity;BME280_pressure;Samples;Min_cycle;Max_cycle;Signal;HPM_P1;HPM_P2
2022/10/09 00:01:04;;;;;;;;;;;;;;;12.66;72.01;95605.59;5113254;28;1913;-75
2022/10/09 00:03:31;;;;;;;;;;;;;;;12.41;72.77;95607.34;5114528;28;1087;-75
2022/10/09 00:05:57;;;;;;;;;;;;;;;12.54;72.52;95606.91;5112712;28;1499;-75
2022/10/09 00:08:23;;;;;;;;;;;;;;;12.66;71.74;95604.75;5114007;28;1247;-75
2022/10/09 00:10:50;;;;;;;;;;;;;;;12.76;71.43;95599.25;5114515;28;1096;-75
2022/10/09 00:13:16;;;;;;;;;;;;;;;12.67;71.85;95596.56;5114452;28;1016;-74
2022/10/09 00:15:43;;;;;;;;;;;;;;;12.44;72.56;95596.28;5114319;28;1051;-76
2022/10/09 00:18:10;;;;;;;;;;;;;;;12.31;72.71;95595.91;5113000;28;985;-75
2022/10/09 00:20:37;;;;;;;;;;;;;;;12.32;72.61;95600.28;5113719;28;1191;-75
2022/10/09 00:23:03;;;;;;;;;;;;;;;12.40;72.39;95596.78;5114373;28;1912;-75
2022/10/09 00:25:29;;;;;;;;;;;;;;;12.53;71.81;95583.75;5112922;28;1092;-75
2022/10/09 00:27:59;;;;;;;;;;;;;;;12.52;71.51;95582.09;5114118;28;1107;-75
2022/10/09 00:30:25;;;;;;;;;;;;;;;12.52;71.54;95573.19;5114153;28;1057;-75
2022/10/09 00:32:51;;;;;;;;;;;;;;;12.39;71.67;95574.50;5114445;28;973;-75
2022/10/09 00:35:17;;;;;;;;;;;;;;;12.37;72.12;95583.69;5114146;28;1628;-75
2022/10/09 00:37:43;;;;;;;;;;;;;;;12.23;72.38;95577.94;5113835;28;1045;-74
2022/10/09 00:40:10;;;;;;;;;;;;;;;12.19;72.28;95576.59;5114029;28;1061;-75
2022/10/09 00:42:36;;;;;;;;;;;;;;;12.23;72.41;95577.94;5113975;28;1898;-74
2022/10/09 00:45:03;;;;;;;;;;;;;;;12.25;71.70;95580.47;5113948;28;960;-75
2022/10/09 00:47:29;;;;;;;;;;;;;;;12.13;71.83;95581.75;5114010;28;1076;-75
2022/10/09 00:49:58;;;;;;;;;;;;;;;12.06;72.24;95582.38;5109100;28;1545;-75
2022/10/09 00:52:24;;;;;;;;;;;;;;;12.13;72.11;95579.91;5093442;28;1059;-75
2022/10/09 00:54:51;;;;;;;;;;;;;;;12.03;71.75;95581.88;5093651;28;957;-75
2022/10/09 00:57:17;;;;;;;;;;;;;;;11.97;72.08;95583.34;5092467;28;985;-74
2022/10/09 00:59:43;;;;;;;;;;;;;;;12.00;71.87;95583.03;5093719;28;1007;-75
2022/10/09 01:02:09;;;;;;;;;;;;;;;12.05;71.35;95579.88;5092528;28;1918;-75
2022/10/09 01:04:35;;;;;;;;;;;;;;;11.89;71.84;95578.81;5093404;28;1060;-75
2022/10/09 01:07:11;;;;;;;;;;;;;;;11.96;71.46;95580.84;5092415;28;1047;-75
2022/10/09 01:09:37;;;;;;;;;;;;;;;11.87;71.89;95579.91;5093601;28;1059;-74
2022/10/09 01:12:26;;;;;;;;;;;;;;;11.86;72.11;95583.59;5092266;28;1009;-74
2022/10/09 01:15:01;;;;;;;;;;;;;;;11.75;71.81;95584.69;5073486;28;1162;-74
2022/10/09 01:17:50;;;;;;;;;;;;;;;11.77;71.73;95584.53;5093508;28;1049;-75
2022/10/09 01:20:30;;;;;;;;;;;;;;;11.85;71.60;95581.91;5093430;28;1087;-75
2022/10/09 01:23:13;;;;;;;;;;;;;;;11.86;71.37;95579.06;5093578;28;1914;-75
2022/10/09 01:25:39;;;;;;;;;;;;;;;11.86;71.61;95579.06;5092323;28;1036;-75
2022/10/09 01:28:06;;;;;;;;;;;;;;;11.78;71.81;95573.69;5093201;28;1088;-75
2022/10/09 01:30:33;;;;;;;;;;;;;;;11.74;71.83;95577.63;5092000;28;1009;-75
2022/10/09 01:33:00;;;;;;;;;;;;;;;11.69;71.98;95579.97;5093178;28;989;-76
2022/10/09 01:35:26;;;;;;;;;;;;;;;11.66;71.76;95580.28;5093316;28;1008;-75
2022/10/09 01:37:53;;;;;;;;;;;;;;;11.71;71.07;95575.28;5092115;28;976;-75
2022/10/09 01:40:20;;;;;;;;;;;;;;;11.63;71.59;95580.56;5093242;28;964;-75
2022/10/09 01:42:46;;;;;;;;;;;;;;;11.59;71.94;95581.91;5091937;28;1972;-75
2022/10/09 01:45:12;;;;;;;;;;;;;;;11.66;71.81;95580.28;5093235;28;968;-75
2022/10/09 01:47:39;;;;;;;;;;;;;;;11.61;71.77;95590.63;5093034;28;972;-75
2022/10/09 01:50:14;;;;;;;;;;;;;;;11.56;71.61;95576.88;5102103;28;1557;-75
2022/10/09 01:52:40;;;;;;;;;;;;;;;11.55;71.24;95577.84;5115883;28;1123;-75
2022/10/09 01:55:18;;;;;;;;;;;;;;;11.57;71.54;95578.53;5116082;28;991;-75
2022/10/09 01:57:51;;;;;;;;;;;;;;;11.58;71.06;95585.59;5115780;28;1063;-75
2022/10/09 02:00:17;;;;;;;;;;;;;;;11.62;71.24;95584.28;5116948;28;1014;-75
2022/10/09 02:02:44;;;;;;;;;;;;;;;11.63;71.42;95593.97;5115842;28;1909;-75
2022/10/09 02:05:12;;;;;;;;;;;;;;;11.56;71.11;95591.09;5117011;28;1043;-75
2022/10/09 02:07:39;;;;;;;;;;;;;;;11.39;71.72;95584.78;5117000;28;1232;-75
2022/10/09 02:10:06;;;;;;;;;;;;;;;11.28;72.95;95585.00;5116860;28;972;-75
2022/10/09 02:12:35;;;;;;;;;;;;;;;11.40;72.26;95591.81;5115449;28;1104;-75
2022/10/09 02:15:02;;;;;;;;;;;;;;;11.51;71.44;95596.94;5116800;28;1096;-76
2022/10/09 02:17:32;;;;;;;;;;;;;;;11.56;71.52;95596.44;5116758;28;1313;-75
2022/10/09 02:20:05;;;;;;;;;;;;;;;11.51;71.77;95598.75;5116826;28;968;-75
2022/10/09 02:22:32;;;;;;;;;;;;;;;11.38;72.25;95603.66;5116459;28;2004;-75
2022/10/09 02:25:00;;;;;;;;;;;;;;;11.43;71.85;95602.19;5116464;28;1045;-75
2022/10/09 02:27:27;;;;;;;;;;;;;;;11.44;72.00;95603.91;5116391;28;1107;-75
2022/10/09 02:29:53;;;;;;;;;;;;;;;11.30;71.77;95609.78;5115494;28;1048;-75
2022/10/09 02:32:21;;;;;;;;;;;;;;;11.35;71.80;95610.19;5115279;28;1027;-75
2022/10/09 02:34:47;;;;;;;;;;;;;;;11.35;71.70;95615.53;5115130;28;1007;-75
2022/10/09 02:37:13;;;;;;;;;;;;;;;11.36;71.32;95614.53;5116254;28;976;-75
2022/10/09 02:39:40;;;;;;;;;;;;;;;11.43;71.36;95618.28;5115097;28;1024;-75
2022/10/09 02:42:06;;;;;;;;;;;;;;;11.23;71.32;95611.41;5114944;28;1914;-75
2022/10/09 02:44:32;;;;;;;;;;;;;;;11.19;72.01;95616.22;5116293;28;995;-75
2022/10/09 02:46:59;;;;;;;;;;;;;;;11.26;71.09;95619.13;5115069;28;992;-76
2022/10/09 02:49:25;;;;;;;;;;;;;;;11.29;71.65;95613.47;5114905;28;1556;-74
2022/10/09 02:51:51;;;;;;;;;;;;;;;11.37;70.98;95618.91;5114631;28;1099;-74
2022/10/09 02:54:17;;;;;;;;;;;;;;;11.33;71.34;95614.84;5114636;28;1079;-74
2022/10/09 02:56:43;;;;;;;;;;;;;;;11.27;71.28;95612.78;5115834;28;1107;-73
2022/10/09 02:59:09;;;;;;;;;;;;;;;11.32;71.01;95619.38;5115993;28;977;-75
2022/10/09 03:01:35;;;;;;;;;;;;;;;11.11;72.35;95608.94;5115813;28;1996;-74
2022/10/09 03:04:01;;;;;;;;;;;;;;;11.20;71.73;95617.91;5115917;28;965;-74
2022/10/09 03:06:27;;;;;;;;;;;;;;;11.07;72.24;95618.28;5115719;28;1042;-74
2022/10/09 03:08:54;;;;;;;;;;;;;;;11.14;71.55;95615.84;5114499;28;977;-74
2022/10/09 03:11:21;;;;;;;;;;;;;;;11.11;71.68;95610.78;5115534;28;1108;-74
2022/10/09 03:13:47;;;;;;;;;;;;;;;11.02;71.47;95620.59;5115761;28;981;-74
2022/10/09 03:16:14;;;;;;;;;;;;;;;11.05;71.16;95616.75;5114350;28;1103;-74
2022/10/09 03:18:40;;;;;;;;;;;;;;;11.06;71.36;95623.78;5114383;28;1012;-75
2022/10/09 03:21:08;;;;;;;;;;;;;;;11.02;71.82;95617.94;5115429;28;2008;-75
2022/10/09 03:23:34;;;;;;;;;;;;;;;10.95;71.79;95627.53;5114196;28;1047;-75
2022/10/09 03:26:01;;;;;;;;;;;;;;;10.89;71.64;95626.31;5115571;28;969;-75
2022/10/09 03:28:28;;;;;;;;;;;;;;;10.72;71.59;95627.13;5114228;28;1016;-75
2022/10/09 03:30:55;;;;;;;;;;;;;;;10.86;71.54;95625.78;5114250;28;969;-75
2022/10/09 03:33:21;;;;;;;;;;;;;;;10.94;71.23;95637.38;5114195;28;988;-73
2022/10/09 03:35:48;;;;;;;;;;;;;;;10.91;71.25;95634.19;5115076;28;1000;-74
2022/10/09 03:38:15;;;;;;;;;;;;;;;11.01;71.25;95636.81;5115057;28;929;-73
2022/10/09 03:40:41;;;;;;;;;;;;;;;11.00;71.13;95632.44;5114980;28;1048;-72
2022/10/09 03:43:07;;;;;;;;;;;;;;;10.94;70.77;95632.03;5114834;28;1914;-72
2022/10/09 03:45:34;;;;;;;;;;;;;;;10.96;70.10;95637.25;5113951;28;1023;-72
2022/10/09 03:48:00;;;;;;;;;;;;;;;10.79;71.22;95641.56;5114858;28;1480;-73
2022/10/09 03:50:26;;;;;;;;;;;;;;;10.87;70.84;95638.13;5105353;28;1255;-72
2022/10/09 03:52:52;;;;;;;;;;;;;;;10.89;70.77;95647.72;5093195;28;1124;-72
2022/10/09 03:55:18;;;;;;;;;;;;;;;10.92;70.54;95635.88;5094648;28;992;-72
2022/10/09 03:57:44;;;;;;;;;;;;;;;10.93;71.00;95643.75;5094452;28;992;-72
2022/10/09 04:00:10;;;;;;;;;;;;;;;10.73;70.89;95639.50;5094420;28;1028;-73
2022/10/09 04:02:36;;;;;;;;;;;;;;;10.60;71.31;95637.19;5094035;28;1985;-73
2022/10/09 04:05:03;;;;;;;;;;;;;;;10.62;71.31;95643.22;5094211;28;1313;-73
2022/10/09 04:07:29;;;;;;;;;;;;;;;10.64;71.43;95648.41;5094092;28;1112;-73
2022/10/09 04:09:55;;;;;;;;;;;;;;;10.69;70.94;95649.66;5094031;28;1056;-73
2022/10/09 04:12:21;;;;;;;;;;;;;;;10.65;71.12;95644.78;5092692;28;993;-72
2022/10/09 04:14:47;;;;;;;;;;;;;;;10.69;71.17;95641.63;5094272;28;1137;-72
2022/10/09 04:17:13;;;;;;;;;;;;;;;10.68;71.15;95636.44;5094020;28;1088;-73
2022/10/09 04:19:39;;;;;;;;;;;;;;;10.64;71.35;95646.59;5093885;28;1045;-72
2022/10/09 04:22:05;;;;;;;;;;;;;;;10.57;71.66;95648.19;5092696;28;1910;-72
2022/10/09 04:24:31;;;;;;;;;;;;;;;10.39;71.72;95650.78;5093853;28;1047;-72
2022/10/09 04:26:57;;;;;;;;;;;;;;;10.20;72.63;95646.34;5093022;28;1040;-72
2022/10/09 04:29:23;;;;;;;;;;;;;;;10.40;71.42;95646.31;5094039;28;989;-73
2022/10/09 04:31:49;;;;;;;;;;;;;;;10.51;71.27;95651.47;5093832;28;1021;-73
2022/10/09 04:34:15;;;;;;;;;;;;;;;10.51;70.90;95654.97;5093697;28;1551;-73
2022/10/09 04:36:41;;;;;;;;;;;;;;;10.59;70.64;95656.91;5093805;28;1032;-73
2022/10/09 04:39:07;;;;;;;;;;;;;;;10.48;70.71;95654.44;5092541;28;985;-73
2022/10/09 04:41:33;;;;;;;;;;;;;;;10.55;71.11;95652.84;5092579;28;1992;-72
2022/10/09 04:43:59;;;;;;;;;;;;;;;10.55;71.05;95656.34;5092609;28;1036;-72
2022/10/09 04:46:25;;;;;;;;;;;;;;;10.56;70.87;95649.16;5093817;28;1028;-73
2022/10/09 04:48:51;;;;;;;;;;;;;;;10.49;71.18;95643.59;5076042;28;1699;-71
2022/10/09 04:51:17;;;;;;;;;;;;;;;10.30;72.05;95647.19;5108884;28;1597;-71
2022/10/09 04:53:44;;;;;;;;;;;;;;;10.34;71.60;95643.22;5112871;28;972;-71
2022/10/09 04:56:12;;;;;;;;;;;;;;;10.32;71.39;95645.22;5113284;28;1004;-63
2022/10/09 04:58:39;;;;;;;;;;;;;;;10.42;71.61;95644.34;5113631;28;1547;-79
2022/10/09 05:01:08;;;;;;;;;;;;;;;10.51;71.34;95644.28;5096409;28;1534;-77
2022/10/09 05:03:34;;;;;;;;;;;;;;;10.44;71.19;95639.69;5113960;28;1913;-75
2022/10/09 05:06:02;;;;;;;;;;;;;;;10.56;71.11;95641.16;5114008;28;1029;-77
2022/10/09 05:08:29;;;;;;;;;;;;;;;10.58;70.98;95647.19;5114362;28;965;-66
2022/10/09 05:10:59;;;;;;;;;;;;;;;10.60;71.30;95641.69;5112946;28;1040;-76
2022/10/09 05:13:27;;;;;;;;;;;;;;;10.63;71.11;95646.75;5114173;28;1028;-72
2022/10/09 05:15:53;;;;;;;;;;;;;;;10.62;71.64;95645.88;5113784;28;1031;-74
2022/10/09 05:18:19;;;;;;;;;;;;;;;10.63;72.03;95652.94;5113995;28;1064;-73
2022/10/09 05:20:45;;;;;;;;;;;;;;;10.75;72.02;95649.06;5113740;28;1049;-72
2022/10/09 05:23:11;;;;;;;;;;;;;;;10.73;72.25;95659.06;5113867;28;1996;-73
2022/10/09 05:25:37;;;;;;;;;;;;;;;10.77;72.14;95667.63;5117210;28;1020;-73
2022/10/09 05:28:05;;;;;;;;;;;;;;;10.89;72.10;95668.28;5117703;28;1016;-73
2022/10/09 05:30:31;;;;;;;;;;;;;;;10.98;71.97;95678.06;5117480;28;1035;-73
2022/10/09 05:32:57;;;;;;;;;;;;;;;11.08;72.56;95672.66;5117503;28;1024;-73
2022/10/09 05:35:23;;;;;;;;;;;;;;;11.10;72.68;95682.22;5116146;28;1115;-73
2022/10/09 05:37:49;;;;;;;;;;;;;;;11.28;71.92;95687.56;5117531;28;999;-73
2022/10/09 05:40:15;;;;;;;;;;;;;;;11.26;72.14;95692.25;5117482;28;1036;-73
2022/10/09 05:42:41;;;;;;;;;;;;;;;11.37;72.65;95698.38;5117212;28;1984;-71
2022/10/09 05:45:07;;;;;;;;;;;;;;;11.60;71.86;95704.09;5116174;28;1035;-74
2022/10/09 05:47:33;;;;;;;;;;;;;;;11.71;71.87;95698.53;5117177;27;984;-73
2022/10/09 05:50:00;;;;;;;;;;;;;;;11.90;72.09;95695.69;5110035;28;1691;-73
2022/10/09 05:52:26;;;;;;;;;;;;;;;11.93;71.86;95707.09;5095289;28;1250;-72
2022/10/09 05:54:55;;;;;;;;;;;;;;;12.05;72.40;95704.00;5097101;28;973;-72
2022/10/09 05:57:21;;;;;;;;;;;;;;;12.09;70.96;95709.91;5079347;28;1796;-74
2022/10/09 05:59:47;;;;;;;;;;;;;;;12.14;71.82;95712.97;5097158;28;1044;-73
2022/10/09 06:02:13;;;;;;;;;;;;;;;12.27;71.96;95707.16;5095476;28;1913;-73
2022/10/09 06:04:39;;;;;;;;;;;;;;;12.30;72.10;95709.53;5095814;28;1039;-73
2022/10/09 06:07:05;;;;;;;;;;;;;;;12.31;72.49;95713.88;5096039;28;985;-73
2022/10/09 06:09:32;;;;;;;;;;;;;;;12.42;73.58;95718.13;5096912;28;1046;-73
2022/10/09 06:11:58;;;;;;;;;;;;;;;12.50;73.46;95723.53;5096801;28;1057;-74
2022/10/09 06:14:24;;;;;;;;;;;;;;;12.59;73.52;95725.28;5096902;28;976;-74
2022/10/09 06:16:50;;;;;;;;;;;;;;;12.73;72.94;95714.94;5095544;28;1052;-75
2022/10/09 06:19:18;;;;;;;;;;;;;;;12.85;72.80;95727.91;5096513;28;1045;-73
2022/10/09 06:21:44;;;;;;;;;;;;;;;12.94;73.22;95730.63;5096492;28;1979;-74
2022/10/09 06:24:15;;;;;;;;;;;;;;;13.10;72.62;95722.66;5095382;28;1083;-74
2022/10/09 06:26:41;;;;;;;;;;;;;;;13.24;72.29;95731.91;5096775;28;1019;-80
2022/10/09 06:29:07;;;;;;;;;;;;;;;13.31;72.06;95726.78;5096515;28;1044;-74
2022/10/09 06:31:33;;;;;;;;;;;;;;;13.39;71.13;95724.09;5096005;28;1083;-70
2022/10/09 06:34:01;;;;;;;;;;;;;;;13.50;71.06;95731.00;5096136;28;1020;-77
2022/10/09 06:36:28;;;;;;;;;;;;;;;13.60;71.22;95737.94;5096409;28;972;-82
2022/10/09 06:38:54;;;;;;;;;;;;;;;13.75;70.49;95738.09;5095525;28;1052;-79
2022/10/09 06:41:25;;;;;;;;;;;;;;;13.82;70.29;95744.47;5096466;28;1909;-79
2022/10/09 06:43:52;;;;;;;;;;;;;;;13.76;70.36;95742.47;5096660;28;956;-79
2022/10/09 06:46:19;;;;;;;;;;;;;;;13.87;70.84;95738.63;5096429;28;1064;-79
2022/10/09 06:48:45;;;;;;;;;;;;;;;14.04;69.73;95739.47;5096471;28;1039;-80
2022/10/09 06:51:16;;;;;;;;;;;;;;;14.13;69.58;95741.13;5110950;28;1590;-79
2022/10/09 06:53:44;;;;;;;;;;;;;;;14.24;69.27;95735.41;5116962;27;976;-78
2022/10/09 06:56:10;;;;;;;;;;;;;;;14.29;69.45;95742.16;5116582;28;1104;-78
2022/10/09 06:58:37;;;;;;;;;;;;;;;14.52;68.89;95742.28;5116713;28;1063;-79
2022/10/09 07:01:06;;;;;;;;;;;;;;;14.69;68.73;95735.88;5116648;27;985;-79
2022/10/09 07:03:32;;;;;;;;;;;;;;;14.83;68.56;95735.16;5115229;28;1979;-79
2022/10/09 07:06:05;;;;;;;;;;;;;;;14.92;68.27;95741.34;5114946;28;1001;-75
2022/10/09 07:08:32;;;;;;;;;;;;;;;14.84;67.83;95744.09;5114638;28;1109;-76
2022/10/09 07:10:58;;;;;;;;;;;;;;;14.70;68.60;95747.47;5115155;28;1002;-78
2022/10/09 07:13:24;;;;;;;;;;;;;;;14.85;68.40;95748.44;5115845;28;1028;-78
2022/10/09 07:15:50;;;;;;;;;;;;;;;15.05;68.75;95750.75;5115896;28;1040;-78
2022/10/09 07:18:16;;;;;;;;;;;;;;;15.20;68.41;95749.81;5116180;28;1023;-78
2022/10/09 07:20:42;;;;;;;;;;;;;;;15.37;68.21;95747.06;5114630;28;1032;-78
2022/10/09 07:23:08;;;;;;;;;;;;;;;15.51;67.68;95746.31;5115724;28;1995;-75
2022/10/09 07:25:37;;;;;;;;;;;;;;;15.67;67.94;95748.06;5114360;28;955;-75
2022/10/09 07:28:03;;;;;;;;;;;;;;;15.83;67.79;95757.09;5115459;27;1107;-75
2022/10/09 07:30:29;;;;;;;;;;;;;;;16.00;66.68;95753.25;5115291;28;1040;-72
2022/10/09 07:32:55;;;;;;;;;;;;;;;16.18;66.57;95753.81;5115528;27;1107;-80
2022/10/09 07:35:21;;;;;;;;;;;;;;;16.58;65.90;95751.75;5115618;28;1039;-77
2022/10/09 07:37:47;;;;;;;;;;;;;;;16.97;64.33;95749.84;5115315;28;1019;-77
2022/10/09 07:40:13;;;;;;;;;;;;;;;17.20;64.32;95759.72;5114245;28;1076;-76
2022/10/09 07:42:40;;;;;;;;;;;;;;;17.49;62.45;95753.44;5096762;28;1991;-76
2022/10/09 07:45:06;;;;;;;;;;;;;;;17.81;62.39;95754.00;5114022;28;1580;-76
2022/10/09 07:47:32;;;;;;;;;;;;;;;17.94;61.07;95752.31;5114470;28;1057;-75
2022/10/09 07:49:58;;;;;;;;;;;;;;;18.09;61.53;95746.00;5109808;28;1598;-75
2022/10/09 07:52:24;;;;;;;;;;;;;;;18.24;60.90;95745.94;5093428;28;1372;-76
2022/10/09 07:54:50;;;;;;;;;;;;;;;18.35;60.21;95742.72;5094833;28;1002;-75
2022/10/09 07:57:16;;;;;;;;;;;;;;;18.56;60.19;95747.25;5094344;28;1052;-73
2022/10/09 07:59:42;;;;;;;;;;;;;;;18.70;59.55;95740.06;5094399;28;1001;-74
2022/10/09 08:02:08;;;;;;;;;;;;;;;18.85;58.18;95742.69;5094628;28;1910;-75
2022/10/09 08:04:36;;;;;;;;;;;;;;;19.05;58.18;95734.72;5094135;28;1068;-75
2022/10/09 08:07:02;;;;;;;;;;;;;;;19.47;57.23;95744.50;5093239;28;1162;-75
2022/10/09 08:09:28;;;;;;;;;;;;;;;19.86;57.45;95744.88;5094235;28;1012;-73
2022/10/09 08:11:54;;;;;;;;;;;;;;;20.44;54.60;95736.19;5093142;28;1068;-71
2022/10/09 08:14:20;;;;;;;;;;;;;;;20.86;54.18;95732.22;5094115;28;988;-70
2022/10/09 08:16:46;;;;;;;;;;;;;;;20.61;54.12;95733.91;5094115;28;985;-70
2022/10/09 08:19:12;;;;;;;;;;;;;;;19.95;55.59;95729.25;5094063;28;968;-69
2022/10/09 08:21:38;;;;;;;;;;;;;;;19.34;57.61;95725.47;5093871;28;1918;-69
2022/10/09 08:24:04;;;;;;;;;;;;;;;19.21;58.01;95728.94;5093801;28;1029;-70
2022/10/09 08:26:31;;;;;;;;;;;;;;;19.18;58.38;95728.50;5093746;28;985;-69
2022/10/09 08:28:58;;;;;;;;;;;;;;;19.02;58.59;95725.09;5093751;28;1024;-69
2022/10/09 08:31:25;;;;;;;;;;;;;;;18.94;59.06;95729.84;5092400;28;1084;-69
2022/10/09 08:33:55;;;;;;;;;;;;;;;19.23;58.33;95728.75;5092690;28;1044;-70
2022/10/09 08:36:21;;;;;;;;;;;;;;;19.76;56.88;95722.72;5092474;28;1262;-70
2022/10/09 08:38:48;;;;;;;;;;;;;;;19.62;57.02;95728.06;5093653;28;995;-69
2022/10/09 08:41:32;;;;;;;;;;;;;;;19.37;57.15;95719.66;5093636;28;1127;-69
2022/10/09 08:44:01;;;;;;;;;;;;;;;19.10;58.49;95710.53;5093524;28;1128;-70
2022/10/09 08:46:45;;;;;;;;;;;;;;;19.98;55.57;95710.66;5092502;28;1114;-70
2022/10/09 08:49:21;;;;;;;;;;;;;;;20.60;54.27;95700.50;5093645;28;1020;-70
2022/10/09 08:51:48;;;;;;;;;;;;;;;21.09;52.92;95702.91;5093316;28;1091;-69
2022/10/09 08:54:14;;;;;;;;;;;;;;;21.91;50.56;95704.06;5093387;28;1055;-70
2022/10/09 08:56:40;;;;;;;;;;;;;;;22.19;49.86;95702.81;5093364;28;1029;-69
2022/10/09 08:59:08;;;;;;;;;;;;;;;21.76;50.60;95698.03;5096392;28;1042;-69
2022/10/09 09:01:34;;;;;;;;;;;;;;;22.09;49.88;95697.03;5097603;28;1989;-70
2022/10/09 09:04:19;;;;;;;;;;;;;;;22.24;49.67;95692.09;5097637;28;1096;-69
2022/10/09 09:07:05;;;;;;;;;;;;;;;22.18;49.66;95684.81;5097344;28;1026;-69
2022/10/09 09:09:35;;;;;;;;;;;;;;;21.95;50.15;95686.22;5097632;28;969;-69
2022/10/09 09:12:04;;;;;;;;;;;;;;;21.61;51.37;95685.56;5097648;28;973;-70
2022/10/09 09:14:45;;;;;;;;;;;;;;;21.20;52.30;95689.47;5097771;28;1025;-69
2022/10/09 09:17:11;;;;;;;;;;;;;;;20.70;54.40;95689.19;5097839;28;1120;-69
2022/10/09 09:19:39;;;;;;;;;;;;;;;20.30;55.40;95681.06;5097537;28;1049;-70
2022/10/09 09:22:10;;;;;;;;;;;;;;;19.91;57.22;95688.09;5096278;28;1909;-69
2022/10/09 09:24:40;;;;;;;;;;;;;;;19.70;56.61;95686.38;5097275;28;1044;-68
2022/10/09 09:27:11;;;;;;;;;;;;;;;19.56;58.33;95685.50;5097512;28;1000;-69
2022/10/09 09:29:40;;;;;;;;;;;;;;;19.50;58.94;95686.28;5095963;28;1135;-69
2022/10/09 09:32:12;;;;;;;;;;;;;;;19.44;58.98;95677.09;5097451;28;1039;-69
2022/10/09 09:34:40;;;;;;;;;;;;;;;19.46;59.13;95682.31;5097345;28;1039;-69
2022/10/09 09:37:08;;;;;;;;;;;;;;;19.38;59.44;95677.09;5095827;28;1076;-69
2022/10/09 09:39:35;;;;;;;;;;;;;;;19.30;59.56;95684.34;5097051;28;1104;-69
2022/10/09 09:42:11;;;;;;;;;;;;;;;19.39;59.46;95679.59;5097228;28;1985;-68
2022/10/09 09:44:40;;;;;;;;;;;;;;;19.40;59.88;95675.84;5097325;28;1328;-69
2022/10/09 09:47:12;;;;;;;;;;;;;;;19.39;59.82;95676.03;5097168;28;957;-69
2022/10/09 09:49:51;;;;;;;;;;;;;;;19.48;58.48;95677.53;5099364;28;1560;-69
2022/10/09 09:52:17;;;;;;;;;;;;;;;19.45;57.57;95672.53;5116882;28;1345;-69
2022/10/09 09:54:46;;;;;;;;;;;;;;;19.50;58.71;95665.47;5115813;28;1048;-68
2022/10/09 09:57:26;;;;;;;;;;;;;;;19.61;58.04;95669.44;5117224;28;1055;-68
2022/10/09 09:59:52;;;;;;;;;;;;;;;19.70;56.99;95664.66;5117260;28;1000;-69
2022/10/09 10:02:20;;;;;;;;;;;;;;;19.67;55.85;95656.91;5115964;28;1918;-69
2022/10/09 10:04:49;;;;;;;;;;;;;;;19.68;54.49;95655.91;5116984;28;1096;-69
2022/10/09 10:07:26;;;;;;;;;;;;;;;19.79;54.92;95655.31;5116977;28;1671;-69
2022/10/09 10:10:00;;;;;;;;;;;;;;;19.69;55.44;95655.69;5116518;28;977;-69
2022/10/09 10:12:26;;;;;;;;;;;;;;;19.77;56.24;95656.56;5116925;28;1044;-69
2022/10/09 10:14:52;;;;;;;;;;;;;;;19.80;55.51;95664.28;5117109;28;976;-69
2022/10/09 10:17:24;;;;;;;;;;;;;;;19.84;54.02;95652.84;5117272;28;1051;-69
2022/10/09 10:19:50;;;;;;;;;;;;;;;19.89;54.26;95647.59;5117112;27;1015;-68
2022/10/09 10:22:24;;;;;;;;;;;;;;;19.94;53.66;95649.72;5116915;28;1913;-68
2022/10/09 10:24:51;;;;;;;;;;;;;;;19.82;55.20;95641.31;5116772;28;1100;-71
2022/10/09 10:27:24;;;;;;;;;;;;;;;19.78;55.09;95639.25;5116766;28;1088;-69
2022/10/09 10:29:54;;;;;;;;;;;;;;;19.92;54.19;95640.09;5116634;28;1023;-69
2022/10/09 10:32:29;;;;;;;;;;;;;;;19.98;54.11;95637.38;5116635;28;1039;-69
2022/10/09 10:34:55;;;;;;;;;;;;;;;20.09;53.76;95639.47;5115789;28;1103;-70
2022/10/09 10:37:33;;;;;;;;;;;;;;;20.19;53.33;95638.22;5117139;28;1049;-69
2022/10/09 10:40:06;;;;;;;;;;;;;;;20.16;51.63;95635.94;5116389;28;1044;-70
2022/10/09 10:42:40;;;;;;;;;;;;;;;20.24;52.78;95639.28;5116134;28;1941;-69
2022/10/09 10:45:19;;;;;;;;;;;;;;;20.22;53.12;95637.78;5116404;28;1058;-70
2022/10/09 10:47:50;;;;;;;;;;;;;;;20.08;53.17;95631.53;5116206;28;1056;-70
2022/10/09 10:50:16;;;;;;;;;;;;;;;20.00;54.18;95627.16;5115976;28;1579;-69
2022/10/09 10:53:14;;;;;;;;;;;;;;;20.06;52.64;95618.19;5115986;28;1379;-69
2022/10/09 10:55:50;;;;;;;;;;;;;;;20.17;51.11;95615.91;5103437;28;1316;-69
2022/10/09 10:58:31;;;;;;;;;;;;;;;20.22;52.09;95613.38;5114696;28;1586;-69
2022/10/09 11:01:12;;;;;;;;;;;;;;;20.28;52.11;95613.38;5115940;28;968;-69
2022/10/09 11:04:08;;;;;;;;;;;;;;;20.25;52.21;95604.81;5115574;28;1910;-68
2022/10/09 11:06:40;;;;;;;;;;;;;;;20.26;51.65;95599.16;5095637;28;1290;-68
2022/10/09 11:09:12;;;;;;;;;;;;;;;20.28;50.30;95596.25;5115715;28;996;-68
2022/10/09 11:11:40;;;;;;;;;;;;;;;20.24;51.04;95590.41;5115645;28;1541;-68
2022/10/09 11:14:15;;;;;;;;;;;;;;;20.32;50.70;95583.91;5115432;27;1095;-67
2022/10/09 11:16:47;;;;;;;;;;;;;;;20.31;50.99;95584.94;5115594;28;1170;-68
2022/10/09 11:19:34;;;;;;;;;;;;;;;20.28;52.43;95582.69;5114344;28;1064;-67
2022/10/09 11:22:15;;;;;;;;;;;;;;;20.28;52.05;95585.38;5102741;28;1993;-67
2022/10/09 11:24:44;;;;;;;;;;;;;;;20.24;51.96;95567.81;5115182;28;969;-67
2022/10/09 11:27:10;;;;;;;;;;;;;;;20.26;51.46;95569.31;5115509;28;949;-66
2022/10/09 11:29:40;;;;;;;;;;;;;;;20.29;50.95;95568.03;5114077;28;1051;-67
2022/10/09 11:32:19;;;;;;;;;;;;;;;20.39;49.73;95563.00;5115389;28;1053;-67
2022/10/09 11:34:58;;;;;;;;;;;;;;;20.41;51.20;95557.34;5115400;28;947;-67
2022/10/09 11:37:26;;;;;;;;;;;;;;;20.46;50.74;95563.00;5115464;28;1020;-67
2022/10/09 11:39:53;;;;;;;;;;;;;;;20.59;48.92;95562.94;5115323;28;1054;-68
2022/10/09 11:42:21;;;;;;;;;;;;;;;20.67;49.15;95546.44;5115336;28;1905;-67
2022/10/09 11:44:56;;;;;;;;;;;;;;;20.53;50.56;95543.97;5115017;28;1104;-68
2022/10/09 11:47:28;;;;;;;;;;;;;;;20.59;48.81;95551.25;5115074;28;1043;-67
2022/10/09 11:50:07;;;;;;;;;;;;;;;20.71;48.27;95546.03;5110301;28;1646;-67
2022/10/09 11:52:45;;;;;;;;;;;;;;;20.52;50.13;95545.00;5094591;28;1100;-67
2022/10/09 11:55:28;;;;;;;;;;;;;;;20.40;50.45;95542.13;5094372;28;1017;-67
2022/10/09 11:57:54;;;;;;;;;;;;;;;20.34;50.04;95540.25;5094320;28;1096;-67
2022/10/09 12:00:31;;;;;;;;;;;;;;;20.43;48.79;95542.53;5094541;28;1284;-68
2022/10/09 12:02:59;;;;;;;;;;;;;;;20.51;49.67;95541.47;5094326;28;1906;-68
2022/10/09 12:05:34;;;;;;;;;;;;;;;20.55;50.11;95539.16;5094176;28;1104;-68
2022/10/09 12:08:15;;;;;;;;;;;;;;;20.46;50.13;95535.84;5094085;28;1041;-68
2022/10/09 12:10:45;;;;;;;;;;;;;;;20.60;47.55;95532.06;5093998;28;1100;-69
2022/10/09 12:13:26;;;;;;;;;;;;;;;20.79;46.53;95533.03;5094324;28;980;-68
2022/10/09 12:15:55;;;;;;;;;;;;;;;20.84;48.03;95524.22;5094380;28;977;-67
2022/10/09 12:18:24;;;;;;;;;;;;;;;20.79;48.75;95522.16;5094183;28;1061;-67
2022/10/09 12:20:50;;;;;;;;;;;;;;;20.83;48.33;95525.25;5094012;28;1041;-67
2022/10/09 12:23:19;;;;;;;;;;;;;;;20.92;47.22;95525.84;5094168;28;1902;-67
2022/10/09 12:25:46;;;;;;;;;;;;;;;20.93;47.61;95517.50;5094116;28;1116;-68
2022/10/09 12:28:17;;;;;;;;;;;;;;;20.98;47.40;95516.81;5094443;28;1163;-67
2022/10/09 12:30:45;;;;;;;;;;;;;;;21.12;46.86;95515.72;5094295;28;1037;-67
2022/10/09 12:33:15;;;;;;;;;;;;;;;21.18;46.83;95514.00;5093995;28;1015;-68
2022/10/09 12:35:43;;;;;;;;;;;;;;;21.10;47.49;95508.84;5092922;28;1028;-68
2022/10/09 12:38:16;;;;;;;;;;;;;;;20.99;47.88;95510.34;5093464;28;1028;-67
2022/10/09 12:40:44;;;;;;;;;;;;;;;20.91;47.87;95508.72;5094298;28;1038;-67
2022/10/09 12:43:15;;;;;;;;;;;;;;;20.95;46.06;95506.41;5093719;28;1902;-68
2022/10/09 12:48:48;;;;;;;;;;;;;;;21.05;46.25;95504.03;5093824;28;1048;-68
2022/10/09 12:51:15;;;;;;;;;;;;;;;21.14;45.46;95505.47;5109698;28;1412;-68
2022/10/09 12:53:45;;;;;;;;;;;;;;;21.09;46.03;95504.44;5113822;28;1116;-68
2022/10/09 12:56:13;;;;;;;;;;;;;;;21.13;44.76;95506.50;5112917;28;1028;-68
2022/10/09 12:58:42;;;;;;;;;;;;;;;21.11;45.61;95505.06;5114072;28;1670;-68
2022/10/09 13:01:13;;;;;;;;;;;;;;;21.10;43.92;95515.09;5114207;28;994;-68
2022/10/09 13:03:40;;;;;;;;;;;;;;;21.02;45.75;95509.94;5113826;28;1897;-68
2022/10/09 13:06:11;;;;;;;;;;;;;;;20.94;46.43;95511.00;5112688;28;1002;-68
2022/10/09 13:08:38;;;;;;;;;;;;;;;20.92;46.58;95504.13;5114235;28;1056;-67